Pedro Luro, Argentina
Current Conditions -  °F | °C
As of 1:00 PM on Thursday 27 Nov 2014 (Local Time) from SAZN Reporting Station
Clear Clear  
Wind Chill: 79°   Ceiling: Unl
Heat Index: 79°   Visibility: 6mi
Dew Point: 39°   Wind: 5mph
Humidity: 24%   Direction: 140°SE
Pressure: 29.83"   Gusts: NA
Location:  39.48°S, 62.68°W
Report Text: SAZN 271600Z 14004KT CAVOK 26/04 Q1010
Loading
Personal Weather Stations






























Interactive Weather Map New forecast layout! Learn more

10-Day Weather Forecast

Advertisements
Track Severe Weather on mobile